sensor_id;sensor_type;location;lat;lon;timestamp;temperature;humidity
25170;DHT22;13129;48.012;10.352;2022-07-29T03:41:55;14.90;99.90
25170;DHT22;13129;48.012;10.352;2022-07-29T03:44:47;14.70;99.90
25170;DHT22;13129;48.012;10.352;2022-07-29T03:47:15;14.60;99.90
25170;DHT22;13129;48.012;10.352;2022-07-29T03:49:42;14.50;99.90
25170;DHT22;13129;48.012;10.352;2022-07-29T03:52:09;14.40;99.90
25170;DHT22;13129;48.012;10.352;2022-07-29T03:54:36;14.30;99.90
25170;DHT22;13129;48.012;10.352;2022-07-29T03:57:02;14.30;99.90
25170;DHT22;13129;48.012;10.352;2022-07-29T03:59:28;14.30;99.90
25170;DHT22;13129;48.012;10.352;2022-07-29T04:01:56;14.40;99.90
25170;DHT22;13129;48.012;10.352;2022-07-29T04:04:22;14.50;99.90
25170;DHT22;13129;48.012;10.352;2022-07-29T04:06:48;14.60;99.90
25170;DHT22;13129;48.012;10.352;2022-07-29T04:09:14;14.80;99.90
25170;DHT22;13129;48.012;10.352;2022-07-29T04:11:41;14.90;99.90
25170;DHT22;13129;48.012;10.352;2022-07-29T04:14:06;15.00;99.90
25170;DHT22;13129;48.012;10.352;2022-07-29T04:16:32;15.10;99.90
25170;DHT22;13129;48.012;10.352;2022-07-29T04:18:58;15.10;99.90
25170;DHT22;13129;48.012;10.352;2022-07-29T04:21:24;15.20;99.90
25170;DHT22;13129;48.012;10.352;2022-07-29T04:23:50;15.20;99.90
25170;DHT22;13129;48.012;10.352;2022-07-29T04:26:17;15.30;99.90
25170;DHT22;13129;48.012;10.352;2022-07-29T04:28:43;15.30;99.90
25170;DHT22;13129;48.012;10.352;2022-07-29T04:31:09;15.40;99.90
25170;DHT22;13129;48.012;10.352;2022-07-29T04:33:35;15.40;99.90
25170;DHT22;13129;48.012;10.352;2022-07-29T04:36:01;15.50;99.90
25170;DHT22;13129;48.012;10.352;2022-07-29T04:38:27;15.60;99.90
25170;DHT22;13129;48.012;10.352;2022-07-29T04:40:52;15.70;99.90
25170;DHT22;13129;48.012;10.352;2022-07-29T04:43:18;15.80;99.90
25170;DHT22;13129;48.012;10.352;2022-07-29T04:45:44;15.90;99.90
25170;DHT22;13129;48.012;10.352;2022-07-29T04:48:10;16.00;99.90
25170;DHT22;13129;48.012;10.352;2022-07-29T04:50:38;16.10;99.90
25170;DHT22;13129;48.012;10.352;2022-07-29T04:53:04;16.20;99.90
25170;DHT22;13129;48.012;10.352;2022-07-29T04:55:29;16.40;99.90
25170;DHT22;13129;48.012;10.352;2022-07-29T04:57:55;16.50;99.90
25170;DHT22;13129;48.012;10.352;2022-07-29T05:00:21;16.60;99.90
25170;DHT22;13129;48.012;10.352;2022-07-29T05:02:48;16.80;99.90
25170;DHT22;13129;48.012;10.352;2022-07-29T05:05:14;16.90;99.90
25170;DHT22;13129;48.012;10.352;2022-07-29T05:07:40;17.00;99.90
25170;DHT22;13129;48.012;10.352;2022-07-29T05:10:07;17.30;99.90
25170;DHT22;13129;48.012;10.352;2022-07-29T05:12:33;17.70;99.90
25170;DHT22;13129;48.012;10.352;2022-07-29T05:14:59;18.10;99.90
25170;DHT22;13129;48.012;10.352;2022-07-29T05:17:24;18.50;99.90
25170;DHT22;13129;48.012;10.352;2022-07-29T05:19:50;18.70;99.90
25170;DHT22;13129;48.012;10.352;2022-07-29T05:22:20;19.00;99.90
25170;DHT22;13129;48.012;10.352;2022-07-29T05:24:46;19.50;99.90
25170;DHT22;13129;48.012;10.352;2022-07-29T05:27:11;20.30;99.90
25170;DHT22;13129;48.012;10.352;2022-07-29T05:29:37;21.00;99.90
25170;DHT22;13129;48.012;10.352;2022-07-29T05:32:03;22.60;99.90
25170;DHT22;13129;48.012;10.352;2022-07-29T05:34:29;24.20;99.90
25170;DHT22;13129;48.012;10.352;2022-07-29T05:36:56;25.40;99.90
25170;DHT22;13129;48.012;10.352;2022-07-29T05:39:22;26.10;99.90
25170;DHT22;13129;48.012;10.352;2022-07-29T05:41:48;26.20;99.90
25170;DHT22;13129;48.012;10.352;2022-07-29T05:44:14;25.70;99.90
25170;DHT22;13129;48.012;10.352;2022-07-29T05:46:40;25.90;99.90
25170;DHT22;13129;48.012;10.352;2022-07-29T05:49:05;26.90;99.90
25170;DHT22;13129;48.012;10.352;2022-07-29T05:51:35;28.10;99.90
25170;DHT22;13129;48.012;10.352;2022-07-29T05:54:01;28.80;99.90
25170;DHT22;13129;48.012;10.352;2022-07-29T05:56:27;29.50;99.40
25170;DHT22;13129;48.012;10.352;2022-07-29T05:58:53;29.50;96.60
25170;DHT22;13129;48.012;10.352;2022-07-29T06:01:19;30.10;95.70
25170;DHT22;13129;48.012;10.352;2022-07-29T06:03:45;30.70;91.50
25170;DHT22;13129;48.012;10.352;2022-07-29T06:06:11;31.50;88.70
25170;DHT22;13129;48.012;10.352;2022-07-29T06:08:37;31.00;85.50
25170;DHT22;13129;48.012;10.352;2022-07-29T06:11:03;29.70;86.60
25170;DHT22;13129;48.012;10.352;2022-07-29T06:13:30;28.20;89.20
25170;DHT22;13129;48.012;10.352;2022-07-29T06:15:56;27.00;91.30
25170;DHT22;13129;48.012;10.352;2022-07-29T06:18:22;26.00;92.90
25170;DHT22;13129;48.012;10.352;2022-07-29T06:20:50;25.20;95.10
25170;DHT22;13129;48.012;10.352;2022-07-29T06:23:17;24.60;96.50
25170;DHT22;13129;48.012;10.352;2022-07-29T06:25:43;23.90;97.80
25170;DHT22;13129;48.012;10.352;2022-07-29T06:28:08;23.30;99.90
25170;DHT22;13129;48.012;10.352;2022-07-29T06:30:34;22.90;99.90
25170;DHT22;13129;48.012;10.352;2022-07-29T06:33:00;22.40;99.90
25170;DHT22;13129;48.012;10.352;2022-07-29T06:35:27;21.90;99.90
25170;DHT22;13129;48.012;10.352;2022-07-29T06:37:53;21.50;99.90
25170;DHT22;13129;48.012;10.352;2022-07-29T06:40:19;21.20;99.90
25170;DHT22;13129;48.012;10.352;2022-07-29T06:43:03;21.10;99.90
25170;DHT22;13129;48.012;10.352;2022-07-29T06:45:29;20.90;99.90
25170;DHT22;13129;48.012;10.352;2022-07-29T06:47:55;20.80;99.90
25170;DHT22;13129;48.012;10.352;2022-07-29T06:50:20;20.60;99.90
25170;DHT22;13129;48.012;10.352;2022-07-29T06:52:47;20.50;99.90
25170;DHT22;13129;48.012;10.352;2022-07-29T06:55:13;20.20;99.90
25170;DHT22;13129;48.012;10.352;2022-07-29T06:57:39;20.00;99.90
25170;DHT22;13129;48.012;10.352;2022-07-29T07:00:05;19.90;99.90
25170;DHT22;13129;48.012;10.352;2022-07-29T07:02:31;19.80;99.90
25170;DHT22;13129;48.012;10.352;2022-07-29T07:04:57;19.70;99.90
25170;DHT22;13129;48.012;10.352;2022-07-29T07:07:24;19.70;99.90
25170;DHT22;13129;48.012;10.352;2022-07-29T07:09:50;19.60;99.90
25170;DHT22;13129;48.012;10.352;2022-07-29T07:12:15;19.70;99.90
25170;DHT22;13129;48.012;10.352;2022-07-29T07:14:41;19.80;99.90
25170;DHT22;13129;48.012;10.352;2022-07-29T07:17:07;19.80;99.90
25170;DHT22;13129;48.012;10.352;2022-07-29T07:19:33;19.80;99.90
25170;DHT22;13129;48.012;10.352;2022-07-29T07:21:59;19.80;99.90
25170;DHT22;13129;48.012;10.352;2022-07-29T07:24:24;19.80;99.90
25170;DHT22;13129;48.012;10.352;2022-07-29T07:26:50;19.80;99.90
25170;DHT22;13129;48.012;10.352;2022-07-29T07:29:16;19.80;99.90
25170;DHT22;13129;48.012;10.352;2022-07-29T07:31:42;19.80;99.90
25170;DHT22;13129;48.012;10.352;2022-07-29T07:34:08;19.90;99.90
25170;DHT22;13129;48.012;10.352;2022-07-29T07:36:33;20.00;99.90
25170;DHT22;13129;48.012;10.352;2022-07-29T07:38:59;20.10;99.90
25170;DHT22;13129;48.012;10.352;2022-07-29T07:41:25;20.30;99.90
25170;DHT22;13129;48.012;10.352;2022-07-29T07:43:50;20.30;99.90
25170;DHT22;13129;48.012;10.352;2022-07-29T07:46:16;20.40;99.90
25170;DHT22;13129;48.012;10.352;2022-07-29T07:48:42;20.40;99.90
25170;DHT22;13129;48.012;10.352;2022-07-29T07:51:07;20.30;99.90
25170;DHT22;13129;48.012;10.352;2022-07-29T07:53:34;20.40;99.90
25170;DHT22;13129;48.012;10.352;2022-07-29T07:56:00;20.40;99.90
25170;DHT22;13129;48.012;10.352;2022-07-29T07:58:25;20.40;99.90
25170;DHT22;13129;48.012;10.352;2022-07-29T08:00:51;20.40;99.90
25170;DHT22;13129;48.012;10.352;2022-07-29T08:03:17;20.40;99.90
25170;DHT22;13129;48.012;10.352;2022-07-29T08:05:43;20.30;99.90
25170;DHT22;13129;48.012;10.352;2022-07-29T08:08:08;20.50;99.90
25170;DHT22;13129;48.012;10.352;2022-07-29T08:10:34;20.70;99.90
25170;DHT22;13129;48.012;10.352;2022-07-29T08:13:19;20.90;99.90
25170;DHT22;13129;48.012;10.352;2022-07-29T08:15:45;21.10;99.90
25170;DHT22;13129;48.012;10.352;2022-07-29T08:18:12;21.30;99.90
25170;DHT22;13129;48.012;10.352;2022-07-29T08:20:37;21.60;99.90
25170;DHT22;13129;48.012;10.352;2022-07-29T08:23:05;22.00;99.90
25170;DHT22;13129;48.012;10.352;2022-07-29T08:25:37;22.20;99.90
25170;DHT22;13129;48.012;10.352;2022-07-29T08:28:04;22.50;99.90
25170;DHT22;13129;48.012;10.352;2022-07-29T08:30:30;22.70;99.90
25170;DHT22;13129;48.012;10.352;2022-07-29T08:32:57;23.30;99.90
25170;DHT22;13129;48.012;10.352;2022-07-29T08:35:24;25.60;99.90
25170;DHT22;13129;48.012;10.352;2022-07-29T08:37:50;27.80;99.90
25170;DHT22;13129;48.012;10.352;2022-07-29T08:40:16;29.50;99.90
25170;DHT22;13129;48.012;10.352;2022-07-29T08:42:42;31.10;99.80
25170;DHT22;13129;48.012;10.352;2022-07-29T08:45:08;32.20;92.60
25170;DHT22;13129;48.012;10.352;2022-07-29T08:47:34;32.40;87.40
25170;DHT22;13129;48.012;10.352;2022-07-29T08:50:04;32.00;84.40
25170;DHT22;13129;48.012;10.352;2022-07-29T08:52:33;32.40;82.80
25170;DHT22;13129;48.012;10.352;2022-07-29T08:55:02;33.10;79.50
25170;DHT22;13129;48.012;10.352;2022-07-29T08:57:28;33.80;76.00
25170;DHT22;13129;48.012;10.352;2022-07-29T08:59:55;34.20;71.80
25170;DHT22;13129;48.012;10.352;2022-07-29T09:02:22;33.90;71.30
25170;DHT22;13129;48.012;10.352;2022-07-29T09:04:50;34.30;71.60
25170;DHT22;13129;48.012;10.352;2022-07-29T09:07:17;35.40;68.80
25170;DHT22;13129;48.012;10.352;2022-07-29T09:09:43;36.20;63.70
25170;DHT22;13129;48.012;10.352;2022-07-29T09:12:12;37.00;62.60
25170;DHT22;13129;48.012;10.352;2022-07-29T09:14:39;37.60;60.40
25170;DHT22;13129;48.012;10.352;2022-07-29T09:17:05;38.30;57.70
25170;DHT22;13129;48.012;10.352;2022-07-29T09:19:34;37.50;57.30
25170;DHT22;13129;48.012;10.352;2022-07-29T09:22:02;35.90;58.50
25170;DHT22;13129;48.012;10.352;2022-07-29T09:27:00;32.60;64.80
25170;DHT22;13129;48.012;10.352;2022-07-29T09:29:26;31.10;68.30
25170;DHT22;13129;48.012;10.352;2022-07-29T09:31:55;29.90;71.20
25170;DHT22;13129;48.012;10.352;2022-07-29T09:34:28;29.10;73.10
25170;DHT22;13129;48.012;10.352;2022-07-29T09:36:55;28.30;75.10
25170;DHT22;13129;48.012;10.352;2022-07-29T09:39:41;27.30;79.20
25170;DHT22;13129;48.012;10.352;2022-07-29T09:42:12;26.30;81.50
25170;DHT22;13129;48.012;10.352;2022-07-29T09:47:12;25.20;87.70
25170;DHT22;13129;48.012;10.352;2022-07-29T09:49:58;25.20;89.80
25170;DHT22;13129;48.012;10.352;2022-07-29T09:52:26;25.60;90.60
25170;DHT22;13129;48.012;10.352;2022-07-29T09:54:52;26.50;91.00
25170;DHT22;13129;48.012;10.352;2022-07-29T09:57:25;28.10;88.60
25170;DHT22;13129;48.012;10.352;2022-07-29T10:00:08;28.60;84.60
25170;DHT22;13129;48.012;10.352;2022-07-29T10:02:36;28.40;84.70
25170;DHT22;13129;48.012;10.352;2022-07-29T10:05:04;28.10;84.50
25170;DHT22;13129;48.012;10.352;2022-07-29T10:07:44;27.90;85.80
25170;DHT22;13129;48.012;10.352;2022-07-29T10:10:17;27.60;86.90
25170;DHT22;13129;48.012;10.352;2022-07-29T10:13:00;27.90;87.40
25170;DHT22;13129;48.012;10.352;2022-07-29T10:15:28;29.10;87.50
25170;DHT22;13129;48.012;10.352;2022-07-29T10:17:55;30.70;84.10
25170;DHT22;13129;48.012;10.352;2022-07-29T10:20:21;32.90;77.40
25170;DHT22;13129;48.012;10.352;2022-07-29T10:22:48;35.00;69.20
25170;DHT22;13129;48.012;10.352;2022-07-29T10:25:15;36.00;64.30
25170;DHT22;13129;48.012;10.352;2022-07-29T10:27:41;36.30;59.80
25170;DHT22;13129;48.012;10.352;2022-07-29T10:30:08;36.40;59.30
25170;DHT22;13129;48.012;10.352;2022-07-29T10:38:19;34.10;61.90
25170;DHT22;13129;48.012;10.352;2022-07-29T10:44:00;32.50;64.50
25170;DHT22;13129;48.012;10.352;2022-07-29T10:46:27;31.70;66.10
25170;DHT22;13129;48.012;10.352;2022-07-29T10:57:22;28.70;72.00
25170;DHT22;13129;48.012;10.352;2022-07-29T11:05:05;28.60;74.10
25170;DHT22;13129;48.012;10.352;2022-07-29T11:07:32;28.70;74.30
25170;DHT22;13129;48.012;10.352;2022-07-29T11:15:13;28.20;74.70
25170;DHT22;13129;48.012;10.352;2022-07-29T11:20:42;27.40;76.70
25170;DHT22;13129;48.012;10.352;2022-07-29T11:28:59;26.20;81.90
25170;DHT22;13129;48.012;10.352;2022-07-29T11:34:19;26.50;82.50
25170;DHT22;13129;48.012;10.352;2022-07-29T11:39:41;26.50;82.10
25170;DHT22;13129;48.012;10.352;2022-07-29T11:45:16;26.30;83.80
25170;DHT22;13129;48.012;10.352;2022-07-29T11:50:35;25.80;85.30
25170;DHT22;13129;48.012;10.352;2022-07-29T11:53:05;25.80;85.20
25170;DHT22;13129;48.012;10.352;2022-07-29T11:55:37;25.60;86.00
25170;DHT22;13129;48.012;10.352;2022-07-29T11:58:03;25.40;86.70
25170;DHT22;13129;48.012;10.352;2022-07-29T12:02:55;25.00;89.10
25170;DHT22;13129;48.012;10.352;2022-07-29T12:05:21;24.70;89.70
25170;DHT22;13129;48.012;10.352;2022-07-29T12:07:55;24.30;90.60
25170;DHT22;13129;48.012;10.352;2022-07-29T12:10:20;24.10;91.40
25170;DHT22;13129;48.012;10.352;2022-07-29T12:12:51;23.80;92.20
25170;DHT22;13129;48.012;10.352;2022-07-29T12:15:18;23.60;93.00
25170;DHT22;13129;48.012;10.352;2022-07-29T12:17:47;23.30;93.90
25170;DHT22;13129;48.012;10.352;2022-07-29T12:20:14;23.10;94.90
25170;DHT22;13129;48.012;10.352;2022-07-29T12:22:46;23.00;95.80
25170;DHT22;13129;48.012;10.352;2022-07-29T12:25:14;22.90;96.10
25170;DHT22;13129;48.012;10.352;2022-07-29T12:27:43;22.80;96.90
25170;DHT22;13129;48.012;10.352;2022-07-29T12:30:11;22.70;97.80
25170;DHT22;13129;48.012;10.352;2022-07-29T12:32:41;22.60;98.10
25170;DHT22;13129;48.012;10.352;2022-07-29T12:35:13;22.40;98.50
25170;DHT22;13129;48.012;10.352;2022-07-29T12:37:41;22.40;99.60
25170;DHT22;13129;48.012;10.352;2022-07-29T12:40:09;22.40;99.90
25170;DHT22;13129;48.012;10.352;2022-07-29T12:42:35;22.40;99.90
25170;DHT22;13129;48.012;10.352;2022-07-29T12:45:02;22.40;99.90
25170;DHT22;13129;48.012;10.352;2022-07-29T12:47:28;22.40;99.90
25170;DHT22;13129;48.012;10.352;2022-07-29T12:50:14;22.30;99.90
25170;DHT22;13129;48.012;10.352;2022-07-29T12:52:42;22.40;99.90
25170;DHT22;13129;48.012;10.352;2022-07-29T12:55:08;22.40;99.90
25170;DHT22;13129;48.012;10.352;2022-07-29T12:57:48;22.50;99.90
25170;DHT22;13129;48.012;10.352;2022-07-29T13:00:16;22.50;99.90
25170;DHT22;13129;48.012;10.352;2022-07-29T13:02:42;22.70;99.90
25170;DHT22;13129;48.012;10.352;2022-07-29T13:05:10;22.80;99.90
25170;DHT22;13129;48.012;10.352;2022-07-29T13:07:37;22.90;99.90
25170;DHT22;13129;48.012;10.352;2022-07-29T13:10:20;23.00;99.90
25170;DHT22;13129;48.012;10.352;2022-07-29T13:13:05;23.10;99.90
25170;DHT22;13129;48.012;10.352;2022-07-29T13:15:32;23.30;99.90
25170;DHT22;13129;48.012;10.352;2022-07-29T13:17:58;23.30;99.90
25170;DHT22;13129;48.012;10.352;2022-07-29T13:20:27;23.40;99.90
25170;DHT22;13129;48.012;10.352;2022-07-29T13:22:58;23.40;99.90
25170;DHT22;13129;48.012;10.352;2022-07-29T13:25:30;23.30;99.90
25170;DHT22;13129;48.012;10.352;2022-07-29T13:27:57;23.20;99.90
25170;DHT22;13129;48.012;10.352;2022-07-29T13:30:24;23.20;99.90
25170;DHT22;13129;48.012;10.352;2022-07-29T13:32:51;23.30;99.90
25170;DHT22;13129;48.012;10.352;2022-07-29T13:35:17;23.50;99.90
25170;DHT22;13129;48.012;10.352;2022-07-29T13:37:44;23.80;99.90
25170;DHT22;13129;48.012;10.352;2022-07-29T13:40:11;24.20;99.90
25170;DHT22;13129;48.012;10.352;2022-07-29T13:42:37;24.30;99.90
25170;DHT22;13129;48.012;10.352;2022-07-29T13:45:04;24.30;99.90
25170;DHT22;13129;48.012;10.352;2022-07-29T13:47:30;24.40;99.90
25170;DHT22;13129;48.012;10.352;2022-07-29T13:49:56;24.30;99.90
25170;DHT22;13129;48.012;10.352;2022-07-29T13:52:22;24.30;99.90
25170;DHT22;13129;48.012;10.352;2022-07-29T13:54:47;24.30;99.90
25170;DHT22;13129;48.012;10.352;2022-07-29T13:57:14;24.40;99.90
25170;DHT22;13129;48.012;10.352;2022-07-29T13:59:40;24.40;99.90
25170;DHT22;13129;48.012;10.352;2022-07-29T14:02:07;24.50;99.90
25170;DHT22;13129;48.012;10.352;2022-07-29T14:04:33;24.70;99.90
25170;DHT22;13129;48.012;10.352;2022-07-29T14:06:59;24.80;99.90
25170;DHT22;13129;48.012;10.352;2022-07-29T14:09:24;24.60;99.90
25170;DHT22;13129;48.012;10.352;2022-07-29T14:11:50;24.50;99.90
25170;DHT22;13129;48.012;10.352;2022-07-29T14:14:18;24.40;99.90
25170;DHT22;13129;48.012;10.352;2022-07-29T14:16:43;24.30;99.90
25170;DHT22;13129;48.012;10.352;2022-07-29T14:19:09;24.30;99.90
25170;DHT22;13129;48.012;10.352;2022-07-29T14:21:37;24.30;99.90
25170;DHT22;13129;48.012;10.352;2022-07-29T14:24:03;24.30;99.90
25170;DHT22;13129;48.012;10.352;2022-07-29T14:26:29;24.40;99.90
25170;DHT22;13129;48.012;10.352;2022-07-29T14:28:54;24.60;99.90
25170;DHT22;13129;48.012;10.352;2022-07-29T14:31:20;24.60;99.90
25170;DHT22;13129;48.012;10.352;2022-07-29T14:33:46;24.80;99.90
25170;DHT22;13129;48.012;10.352;2022-07-29T14:36:11;24.80;99.90
25170;DHT22;13129;48.012;10.352;2022-07-29T14:38:37;24.80;99.90
25170;DHT22;13129;48.012;10.352;2022-07-29T14:41:04;24.80;99.90
25170;DHT22;13129;48.012;10.352;2022-07-29T14:43:29;24.70;99.90
25170;DHT22;13129;48.012;10.352;2022-07-29T14:45:55;24.60;99.90
25170;DHT22;13129;48.012;10.352;2022-07-29T14:48:21;24.50;99.90
25170;DHT22;13129;48.012;10.352;2022-07-29T14:50:47;24.50;99.90
25170;DHT22;13129;48.012;10.352;2022-07-29T14:53:12;24.50;99.90
25170;DHT22;13129;48.012;10.352;2022-07-29T14:55:39;24.40;99.90
25170;DHT22;13129;48.012;10.352;2022-07-29T14:58:06;24.30;99.90
25170;DHT22;13129;48.012;10.352;2022-07-29T15:00:32;24.30;99.90
25170;DHT22;13129;48.012;10.352;2022-07-29T15:02:59;24.40;99.90
25170;DHT22;13129;48.012;10.352;2022-07-29T15:05:26;24.40;99.90
25170;DHT22;13129;48.012;10.352;2022-07-29T15:07:52;24.30;99.90
25170;DHT22;13129;48.012;10.352;2022-07-29T15:10:17;24.20;99.90
25170;DHT22;13129;48.012;10.352;2022-07-29T15:12:43;24.10;99.90
25170;DHT22;13129;48.012;10.352;2022-07-29T15:15:09;24.00;99.90
25170;DHT22;13129;48.012;10.352;2022-07-29T15:17:35;24.00;99.90
25170;DHT22;13129;48.012;10.352;2022-07-29T15:20:00;23.90;99.90
25170;DHT22;13129;48.012;10.352;2022-07-29T15:22:27;23.90;99.90
25170;DHT22;13129;48.012;10.352;2022-07-29T15:24:53;23.90;99.90
25170;DHT22;13129;48.012;10.352;2022-07-29T15:27:19;24.00;99.90
25170;DHT22;13129;48.012;10.352;2022-07-29T15:29:44;24.00;99.90
25170;DHT22;13129;48.012;10.352;2022-07-29T15:32:10;24.00;99.90
25170;DHT22;13129;48.012;10.352;2022-07-29T15:34:37;23.90;99.90
25170;DHT22;13129;48.012;10.352;2022-07-29T15:37:03;23.80;99.90
25170;DHT22;13129;48.012;10.352;2022-07-29T15:39:29;23.80;99.90
25170;DHT22;13129;48.012;10.352;2022-07-29T15:41:54;23.60;99.90
25170;DHT22;13129;48.012;10.352;2022-07-29T15:44:20;23.60;99.90
25170;DHT22;13129;48.012;10.352;2022-07-29T15:46:47;23.60;99.90
25170;DHT22;13129;48.012;10.352;2022-07-29T15:49:29;23.50;99.90
25170;DHT22;13129;48.012;10.352;2022-07-29T15:52:05;23.20;99.90
25170;DHT22;13129;48.012;10.352;2022-07-29T15:54:32;22.60;99.90
25170;DHT22;13129;48.012;10.352;2022-07-29T15:56:58;21.70;99.90
25170;DHT22;13129;48.012;10.352;2022-07-29T15:59:24;20.90;99.90
25170;DHT22;13129;48.012;10.352;2022-07-29T16:01:50;20.30;99.90
25170;DHT22;13129;48.012;10.352;2022-07-29T16:04:17;19.80;99.90
25170;DHT22;13129;48.012;10.352;2022-07-29T16:06:43;19.40;99.90
25170;DHT22;13129;48.012;10.352;2022-07-29T16:09:10;19.00;99.90
25170;DHT22;13129;48.012;10.352;2022-07-29T16:11:35;18.80;99.90
25170;DHT22;13129;48.012;10.352;2022-07-29T16:14:01;18.50;99.90
25170;DHT22;13129;48.012;10.352;2022-07-29T16:16:27;18.30;99.90
25170;DHT22;13129;48.012;10.352;2022-07-29T16:18:53;18.10;99.90
25170;DHT22;13129;48.012;10.352;2022-07-29T16:21:19;17.90;99.90
25170;DHT22;13129;48.012;10.352;2022-07-29T16:23:44;17.80;99.90
25170;DHT22;13129;48.012;10.352;2022-07-29T16:26:10;17.70;99.90
25170;DHT22;13129;48.012;10.352;2022-07-29T16:28:36;17.60;99.90
25170;DHT22;13129;48.012;10.352;2022-07-29T16:31:02;17.60;99.90
25170;DHT22;13129;48.012;10.352;2022-07-29T16:33:28;17.60;99.90
25170;DHT22;13129;48.012;10.352;2022-07-29T16:35:54;17.60;99.90
25170;DHT22;13129;48.012;10.352;2022-07-29T16:38:19;17.60;99.90
25170;DHT22;13129;48.012;10.352;2022-07-29T16:40:45;17.60;99.90
25170;DHT22;13129;48.012;10.352;2022-07-29T16:43:11;17.70;99.90
25170;DHT22;13129;48.012;10.352;2022-07-29T16:45:37;17.80;99.90
25170;DHT22;13129;48.012;10.352;2022-07-29T16:48:03;18.00;99.90
25170;DHT22;13129;48.012;10.352;2022-07-29T16:50:29;18.00;99.90
25170;DHT22;13129;48.012;10.352;2022-07-29T16:52:56;18.10;99.90
25170;DHT22;13129;48.012;10.352;2022-07-29T16:55:22;18.20;99.90
25170;DHT22;13129;48.012;10.352;2022-07-29T16:57:47;18.20;99.90
25170;DHT22;13129;48.012;10.352;2022-07-29T17:00:15;18.20;99.90
25170;DHT22;13129;48.012;10.352;2022-07-29T17:02:41;18.20;99.90
25170;DHT22;13129;48.012;10.352;2022-07-29T17:05:08;18.20;99.90
25170;DHT22;13129;48.012;10.352;2022-07-29T17:07:35;18.20;99.90
25170;DHT22;13129;48.012;10.352;2022-07-29T17:10:00;18.20;99.90
25170;DHT22;13129;48.012;10.352;2022-07-29T17:12:29;18.20;99.90
25170;DHT22;13129;48.012;10.352;2022-07-29T17:14:55;18.20;99.90
25170;DHT22;13129;48.012;10.352;2022-07-29T17:17:21;18.10;99.90
25170;DHT22;13129;48.012;10.352;2022-07-29T17:19:47;18.10;99.90
25170;DHT22;13129;48.012;10.352;2022-07-29T17:22:13;18.00;99.90
25170;DHT22;13129;48.012;10.352;2022-07-29T17:24:38;18.00;99.90
25170;DHT22;13129;48.012;10.352;2022-07-29T17:27:05;17.90;99.90
25170;DHT22;13129;48.012;10.352;2022-07-29T17:29:31;17.90;99.90
25170;DHT22;13129;48.012;10.352;2022-07-29T17:31:56;18.00;99.90
25170;DHT22;13129;48.012;10.352;2022-07-29T17:34:23;18.00;99.90
25170;DHT22;13129;48.012;10.352;2022-07-29T17:36:49;17.90;99.90
25170;DHT22;13129;48.012;10.352;2022-07-29T17:39:15;18.00;99.90
25170;DHT22;13129;48.012;10.352;2022-07-29T17:41:41;18.00;99.90
25170;DHT22;13129;48.012;10.352;2022-07-29T17:44:09;18.00;99.90
25170;DHT22;13129;48.012;10.352;2022-07-29T17:46:35;18.00;99.90
25170;DHT22;13129;48.012;10.352;2022-07-29T17:49:01;18.00;99.90
25170;DHT22;13129;48.012;10.352;2022-07-29T17:51:27;17.90;99.90
25170;DHT22;13129;48.012;10.352;2022-07-29T17:53:53;17.90;99.90
25170;DHT22;13129;48.012;10.352;2022-07-29T17:56:22;17.90;99.90
25170;DHT22;13129;48.012;10.352;2022-07-29T17:58:51;17.90;99.90
25170;DHT22;13129;48.012;10.352;2022-07-29T18:01:17;17.90;99.90
25170;DHT22;13129;48.012;10.352;2022-07-29T18:03:43;17.90;99.90
25170;DHT22;13129;48.012;10.352;2022-07-29T18:06:09;17.90;99.90
25170;DHT22;13129;48.012;10.352;2022-07-29T18:08:36;17.80;99.90
25170;DHT22;13129;48.012;10.352;2022-07-29T18:11:02;17.80;99.90
25170;DHT22;13129;48.012;10.352;2022-07-29T18:13:29;17.80;99.90
25170;DHT22;13129;48.012;10.352;2022-07-29T18:15:55;17.70;99.90
25170;DHT22;13129;48.012;10.352;2022-07-29T18:18:20;17.70;99.90
25170;DHT22;13129;48.012;10.352;2022-07-29T18:20:46;17.70;99.90
25170;DHT22;13129;48.012;10.352;2022-07-29T18:23:12;17.70;99.90
25170;DHT22;13129;48.012;10.352;2022-07-29T18:25:38;17.70;99.90
25170;DHT22;13129;48.012;10.352;2022-07-29T18:28:06;17.70;99.90
25170;DHT22;13129;48.012;10.352;2022-07-29T18:30:32;17.60;99.90
25170;DHT22;13129;48.012;10.352;2022-07-29T18:33:06;17.60;99.90
25170;DHT22;13129;48.012;10.352;2022-07-29T18:35:39;17.60;99.90
25170;DHT22;13129;48.012;10.352;2022-07-29T18:38:05;17.60;99.90
25170;DHT22;13129;48.012;10.352;2022-07-29T18:40:31;17.60;99.90
25170;DHT22;13129;48.012;10.352;2022-07-29T18:42:56;17.60;99.90
25170;DHT22;13129;48.012;10.352;2022-07-29T18:45:23;17.60;99.90
25170;DHT22;13129;48.012;10.352;2022-07-29T18:47:48;17.60;99.90
25170;DHT22;13129;48.012;10.352;2022-07-29T18:50:15;17.60;99.90
25170;DHT22;13129;48.012;10.352;2022-07-29T18:52:41;17.60;99.90
25170;DHT22;13129;48.012;10.352;2022-07-29T18:55:07;17.60;99.90
25170;DHT22;13129;48.012;10.352;2022-07-29T18:57:33;17.60;99.90
25170;DHT22;13129;48.012;10.352;2022-07-29T18:59:59;17.60;99.90
25170;DHT22;13129;48.012;10.352;2022-07-29T19:02:25;17.60;99.90
25170;DHT22;13129;48.012;10.352;2022-07-29T19:04:52;17.60;99.90
25170;DHT22;13129;48.012;10.352;2022-07-29T19:07:17;17.60;99.90
25170;DHT22;13129;48.012;10.352;2022-07-29T19:09:44;17.50;99.90
25170;DHT22;13129;48.012;10.352;2022-07-29T19:12:10;17.50;99.90
25170;DHT22;13129;48.012;10.352;2022-07-29T19:14:35;17.50;99.90
25170;DHT22;13129;48.012;10.352;2022-07-29T19:17:01;17.50;99.90
25170;DHT22;13129;48.012;10.352;2022-07-29T19:19:27;17.40;99.90
25170;DHT22;13129;48.012;10.352;2022-07-29T19:21:52;17.50;99.90
25170;DHT22;13129;48.012;10.352;2022-07-29T19:24:18;17.40;99.90
25170;DHT22;13129;48.012;10.352;2022-07-29T19:26:44;17.40;99.90
25170;DHT22;13129;48.012;10.352;2022-07-29T19:29:13;17.40;99.90
25170;DHT22;13129;48.012;10.352;2022-07-29T19:31:39;17.30;99.90
25170;DHT22;13129;48.012;10.352;2022-07-29T19:34:06;17.40;99.90
25170;DHT22;13129;48.012;10.352;2022-07-29T19:36:32;17.30;99.90
25170;DHT22;13129;48.012;10.352;2022-07-29T19:38:58;17.30;99.90
25170;DHT22;13129;48.012;10.352;2022-07-29T19:41:25;17.30;99.90
25170;DHT22;13129;48.012;10.352;2022-07-29T19:43:51;17.20;99.90
25170;DHT22;13129;48.012;10.352;2022-07-29T19:46:17;17.20;99.90
25170;DHT22;13129;48.012;10.352;2022-07-29T19:48:42;17.10;99.90
25170;DHT22;13129;48.012;10.352;2022-07-29T19:51:08;17.00;99.90